createdAt,value
2016-08-29T00:00:26.599Z,1009.98
2016-08-29T00:01:27.358Z,1009.99
2016-08-29T00:02:26.615Z,1009.98
2016-08-29T00:03:26.622Z,1010.03
2016-08-29T00:04:26.632Z,1009.98
2016-08-29T00:05:26.641Z,1010
2016-08-29T00:06:26.648Z,1010
2016-08-29T00:07:26.655Z,1009.98
2016-08-29T00:08:26.663Z,1009.96
2016-08-29T00:09:26.671Z,1009.95
2016-08-29T00:10:26.682Z,1009.96
2016-08-29T00:11:26.689Z,1009.95
2016-08-29T00:12:26.695Z,1009.91
2016-08-29T00:13:26.704Z,1009.95
2016-08-29T00:14:26.712Z,1009.96
2016-08-29T00:15:26.719Z,1009.95
2016-08-29T00:16:26.727Z,1009.94
2016-08-29T00:17:26.737Z,1009.94
2016-08-29T00:18:26.744Z,1009.91
2016-08-29T00:19:26.752Z,1009.9
2016-08-29T00:20:26.760Z,1009.87
2016-08-29T00:21:26.767Z,1009.88
2016-08-29T00:22:26.780Z,1009.84
2016-08-29T00:23:27.195Z,1009.87
2016-08-29T00:24:26.790Z,1009.87
2016-08-29T00:25:26.798Z,1009.87
2016-08-29T00:26:26.807Z,1009.88
2016-08-29T00:27:26.824Z,1009.89
2016-08-29T00:28:26.823Z,1009.91
2016-08-29T00:29:26.830Z,1009.91
2016-08-29T00:30:26.839Z,1009.9
2016-08-29T00:31:26.847Z,1009.82
2016-08-29T00:32:26.853Z,1009.81
2016-08-29T00:33:26.862Z,1009.86
2016-08-29T00:34:26.871Z,1009.82
2016-08-29T00:35:26.879Z,1009.88
2016-08-29T00:36:26.885Z,1009.89
2016-08-29T00:37:26.903Z,1009.87
2016-08-29T00:38:26.901Z,1009.9
2016-08-29T00:39:26.911Z,1009.9
2016-08-29T00:40:26.917Z,1009.88
2016-08-29T00:41:26.930Z,1009.89
2016-08-29T00:42:26.934Z,1009.87
2016-08-29T00:43:26.941Z,1009.88
2016-08-29T00:44:26.949Z,1009.88
2016-08-29T00:45:26.966Z,1009.87
2016-08-29T00:46:26.966Z,1009.86
2016-08-29T00:47:26.973Z,1009.83
2016-08-29T00:48:27.032Z,1009.85
2016-08-29T00:49:26.991Z,1009.83
2016-08-29T00:50:26.997Z,1009.81
2016-08-29T00:51:27.005Z,1009.82
2016-08-29T00:52:27.013Z,1009.81
2016-08-29T00:53:27.022Z,1009.84
2016-08-29T00:54:27.030Z,1009.8
2016-08-29T00:55:27.037Z,1009.79
2016-08-29T00:56:27.046Z,1009.75
2016-08-29T00:57:27.053Z,1009.79
2016-08-29T00:58:27.062Z,1009.78
2016-08-29T00:59:27.068Z,1009.79
2016-08-29T01:00:27.077Z,1009.75
2016-08-29T01:01:27.087Z,1009.77
2016-08-29T01:02:27.093Z,1009.72
2016-08-29T01:03:27.101Z,1009.7
2016-08-29T01:04:27.109Z,1009.72
2016-08-29T01:05:27.117Z,1009.66
2016-08-29T01:06:27.177Z,1009.7
2016-08-29T01:07:27.132Z,1009.65
2016-08-29T01:08:27.143Z,1009.69
2016-08-29T01:09:28.301Z,1009.67
2016-08-29T01:10:27.158Z,1009.7
2016-08-29T01:11:27.165Z,1009.7
2016-08-29T01:12:27.173Z,1009.71
2016-08-29T01:13:27.183Z,1009.69
2016-08-29T01:14:27.191Z,1009.7
2016-08-29T01:15:27.198Z,1009.73
2016-08-29T01:16:27.207Z,1009.74
2016-08-29T01:17:27.214Z,1009.74
2016-08-29T01:18:27.221Z,1009.75
2016-08-29T01:19:27.242Z,1009.74
2016-08-29T01:20:27.238Z,1009.75
2016-08-29T01:21:27.246Z,1009.78
2016-08-29T01:22:27.255Z,1009.76
2016-08-29T01:23:27.262Z,1009.74
2016-08-29T01:24:27.270Z,1009.78
2016-08-29T01:25:27.279Z,1009.75
2016-08-29T01:26:27.285Z,1009.78
2016-08-29T01:27:27.294Z,1009.77
2016-08-29T01:28:27.301Z,1009.82
2016-08-29T01:29:27.310Z,1009.79
2016-08-29T01:30:27.320Z,1009.82
2016-08-29T01:31:27.977Z,1009.8
2016-08-29T01:32:27.333Z,1009.78
2016-08-29T01:33:27.343Z,1009.77
2016-08-29T01:34:27.350Z,1009.79
2016-08-29T01:35:27.358Z,1009.8
2016-08-29T01:36:27.365Z,1009.83
2016-08-29T01:37:27.373Z,1009.79
2016-08-29T01:38:27.381Z,1009.76
2016-08-29T01:39:27.394Z,1009.77
2016-08-29T01:40:27.396Z,1009.84
2016-08-29T01:41:27.405Z,1009.8
2016-08-29T01:42:27.411Z,1009.86
2016-08-29T01:43:27.471Z,1009.89
2016-08-29T01:44:27.428Z,1009.89
2016-08-29T01:45:27.436Z,1009.89
2016-08-29T01:46:27.443Z,1009.92
2016-08-29T01:47:27.452Z,1009.89
2016-08-29T01:48:27.459Z,1009.88
2016-08-29T01:49:27.468Z,1009.9
2016-08-29T01:50:27.474Z,1009.88
2016-08-29T01:51:27.483Z,1009.92
2016-08-29T01:52:27.490Z,1009.91
2016-08-29T01:53:27.848Z,1009.91
2016-08-29T01:54:27.506Z,1009.89
2016-08-29T01:55:27.517Z,1009.93
2016-08-29T01:56:27.522Z,1009.9
2016-08-29T01:57:27.530Z,1009.89
2016-08-29T01:58:27.538Z,1009.86
2016-08-29T01:59:27.550Z,1009.84
2016-08-29T02:00:27.553Z,1009.83
2016-08-29T02:01:27.561Z,1009.87
2016-08-29T02:02:27.569Z,1009.83
2016-08-29T02:03:27.576Z,1009.88
2016-08-29T02:04:27.583Z,1009.84
2016-08-29T02:05:27.592Z,1009.89
2016-08-29T02:06:27.601Z,1009.91
2016-08-29T02:07:27.609Z,1009.94
2016-08-29T02:08:27.767Z,1009.92
2016-08-29T02:09:27.623Z,1009.96
2016-08-29T02:10:27.633Z,1009.97
2016-08-29T02:11:27.639Z,1009.95
2016-08-29T02:12:27.648Z,1009.99
2016-08-29T02:13:27.655Z,1010
2016-08-29T02:14:27.665Z,1009.97
2016-08-29T02:15:27.672Z,1010.01
2016-08-29T02:16:27.680Z,1009.99
2016-08-29T02:17:28.840Z,1010.04
2016-08-29T02:18:27.695Z,1010.04
2016-08-29T02:19:27.703Z,1010.05
2016-08-29T02:20:27.710Z,1010.06
2016-08-29T02:21:27.719Z,1010.06
2016-08-29T02:22:27.727Z,1010.06
2016-08-29T02:23:27.734Z,1010.06
2016-08-29T02:24:27.743Z,1010.07
2016-08-29T02:25:27.751Z,1010.12
2016-08-29T02:26:27.758Z,1010.13
2016-08-29T02:27:27.767Z,1010.11
2016-08-29T02:28:27.775Z,1010.09
2016-08-29T02:29:27.781Z,1010.13
2016-08-29T02:30:27.789Z,1010.11
2016-08-29T02:31:27.797Z,1010.08
2016-08-29T02:32:27.806Z,1010.08
2016-08-29T02:33:27.813Z,1010.07
2016-08-29T02:34:27.820Z,1010.11
2016-08-29T02:35:27.829Z,1010.11
2016-08-29T02:36:27.838Z,1010.14
2016-08-29T02:37:27.844Z,1010.1
2016-08-29T02:38:27.852Z,1010.15
2016-08-29T02:39:28.560Z,1010.12
2016-08-29T02:40:27.867Z,1010.12
2016-08-29T02:41:27.879Z,1010.16
2016-08-29T02:42:27.886Z,1010.13
2016-08-29T02:43:27.891Z,1010.17
2016-08-29T02:44:27.898Z,1010.17
2016-08-29T02:45:27.906Z,1010.17
2016-08-29T02:46:27.914Z,1010.2
2016-08-29T02:47:27.922Z,1010.19
2016-08-29T02:48:27.931Z,1010.19
2016-08-29T02:49:27.939Z,1010.21
2016-08-29T02:50:27.947Z,1010.19
2016-08-29T02:51:27.956Z,1010.2
2016-08-29T02:52:27.961Z,1010.16
2016-08-29T02:53:27.968Z,1010.18
2016-08-29T02:54:28.779Z,1010.21
2016-08-29T02:55:27.986Z,1010.21
2016-08-29T02:56:27.993Z,1010.21
2016-08-29T02:57:28.000Z,1010.21
2016-08-29T02:58:28.009Z,1010.25
2016-08-29T02:59:28.066Z,1010.24
2016-08-29T03:00:28.024Z,1010.24
2016-08-29T03:01:28.031Z,1010.25
2016-08-29T03:02:28.038Z,1010.24
2016-08-29T03:03:28.096Z,1010.25
2016-08-29T03:04:28.055Z,1010.28
2016-08-29T03:05:28.113Z,1010.26
2016-08-29T03:06:28.070Z,1010.22
2016-08-29T03:07:28.078Z,1010.23
2016-08-29T03:08:28.087Z,1010.26
2016-08-29T03:09:28.093Z,1010.26
2016-08-29T03:10:28.103Z,1010.27
2016-08-29T03:11:28.111Z,1010.3
2016-08-29T03:12:28.119Z,1010.26
2016-08-29T03:13:28.127Z,1010.27
2016-08-29T03:14:28.184Z,1010.23
2016-08-29T03:15:28.142Z,1010.23
2016-08-29T03:16:29.000Z,1010.29
2016-08-29T03:17:28.157Z,1010.27
2016-08-29T03:18:28.166Z,1010.26
2016-08-29T03:19:28.180Z,1010.22
2016-08-29T03:20:28.181Z,1010.21
2016-08-29T03:21:28.190Z,1010.24
2016-08-29T03:22:28.197Z,1010.21
2016-08-29T03:23:28.259Z,1010.23
2016-08-29T03:24:28.219Z,1010.27
2016-08-29T03:25:28.224Z,1010.29
2016-08-29T03:26:28.230Z,1010.27
2016-08-29T03:27:28.237Z,1010.28
2016-08-29T03:28:28.244Z,1010.3
2016-08-29T03:29:28.253Z,1010.28
2016-08-29T03:30:28.261Z,1010.31
2016-08-29T03:31:28.271Z,1010.34
2016-08-29T03:32:28.277Z,1010.3
2016-08-29T03:33:28.286Z,1010.28
2016-08-29T03:34:28.292Z,1010.31
2016-08-29T03:35:28.298Z,1010.29
2016-08-29T03:36:28.308Z,1010.3
2016-08-29T03:37:28.317Z,1010.26
2016-08-29T03:38:29.175Z,1010.24
2016-08-29T03:39:28.330Z,1010.25
2016-08-29T03:40:28.339Z,1010.22
2016-08-29T03:41:28.346Z,1010.23
2016-08-29T03:42:28.353Z,1010.2
2016-08-29T03:43:28.362Z,1010.22
2016-08-29T03:44:28.379Z,1010.21
2016-08-29T03:45:28.378Z,1010.2
2016-08-29T03:46:28.385Z,1010.17
2016-08-29T03:47:28.393Z,1010.17
2016-08-29T03:48:28.406Z,1010.19
2016-08-29T03:49:28.409Z,1010.22
2016-08-29T03:50:28.416Z,1010.23
2016-08-29T03:51:28.424Z,1010.18
2016-08-29T03:52:28.431Z,1010.19
2016-08-29T03:53:28.448Z,1010.23
2016-08-29T03:54:28.453Z,1010.25
2016-08-29T03:55:28.455Z,1010.25
2016-08-29T03:56:28.463Z,1010.28
2016-08-29T03:57:28.474Z,1010.28
2016-08-29T03:58:28.478Z,1010.26
2016-08-29T03:59:28.486Z,1010.22
2016-08-29T04:00:28.994Z,1010.25
2016-08-29T04:01:28.502Z,1010.3
2016-08-29T04:02:28.507Z,1010.3
2016-08-29T04:03:28.518Z,1010.26
2016-08-29T04:04:28.524Z,1010.26
2016-08-29T04:05:28.531Z,1010.26
2016-08-29T04:06:28.539Z,1010.23
2016-08-29T04:07:28.548Z,1010.3
2016-08-29T04:08:28.555Z,1010.31
2016-08-29T04:09:28.563Z,1010.31
2016-08-29T04:10:28.573Z,1010.33
2016-08-29T04:11:28.581Z,1010.34
2016-08-29T04:12:28.587Z,1010.35
2016-08-29T04:13:28.603Z,1010.34
2016-08-29T04:14:28.605Z,1010.34
2016-08-29T04:15:28.610Z,1010.33
2016-08-29T04:16:28.618Z,1010.34
2016-08-29T04:17:28.627Z,1010.32
2016-08-29T04:18:28.635Z,1010.36
2016-08-29T04:19:28.642Z,1010.35
2016-08-29T04:20:28.652Z,1010.41
2016-08-29T04:21:28.659Z,1010.38
2016-08-29T04:22:28.768Z,1010.34
2016-08-29T04:23:28.674Z,1010.42
2016-08-29T04:24:28.684Z,1010.42
2016-08-29T04:25:28.692Z,1010.41
2016-08-29T04:26:28.699Z,1010.44
2016-08-29T04:27:28.707Z,1010.41
2016-08-29T04:28:28.716Z,1010.4
2016-08-29T04:29:28.725Z,1010.4
2016-08-29T04:30:28.730Z,1010.44
2016-08-29T04:31:28.739Z,1010.43
2016-08-29T04:32:28.747Z,1010.41
2016-08-29T04:33:28.754Z,1010.43
2016-08-29T04:34:28.763Z,1010.44
2016-08-29T04:35:28.771Z,1010.42
2016-08-29T04:36:28.778Z,1010.46
2016-08-29T04:37:28.888Z,1010.41
2016-08-29T04:38:28.794Z,1010.5
2016-08-29T04:39:28.802Z,1010.48
2016-08-29T04:40:28.810Z,1010.45
2016-08-29T04:41:28.817Z,1010.46
2016-08-29T04:42:28.824Z,1010.49
2016-08-29T04:43:28.833Z,1010.49
2016-08-29T04:44:28.840Z,1010.5
2016-08-29T04:45:28.849Z,1010.49
2016-08-29T04:46:29.856Z,1010.54
2016-08-29T04:47:28.865Z,1010.53
2016-08-29T04:48:28.873Z,1010.56
2016-08-29T04:49:28.879Z,1010.59
2016-08-29T04:50:28.886Z,1010.58
2016-08-29T04:51:28.897Z,1010.59
2016-08-29T04:52:28.903Z,1010.55
2016-08-29T04:53:28.911Z,1010.57
2016-08-29T04:54:28.919Z,1010.55
2016-08-29T04:55:28.927Z,1010.6
2016-08-29T04:56:28.935Z,1010.61
2016-08-29T04:57:29.295Z,1010.59
2016-08-29T04:58:28.950Z,1010.56
2016-08-29T04:59:29.109Z,1010.58
2016-08-29T05:00:28.966Z,1010.6
2016-08-29T05:01:28.973Z,1010.56
2016-08-29T05:02:28.983Z,1010.56
2016-08-29T05:03:28.988Z,1010.59
2016-08-29T05:04:28.996Z,1010.6
2016-08-29T05:05:29.006Z,1010.66
2016-08-29T05:06:29.013Z,1010.62
2016-08-29T05:07:29.026Z,1010.63
2016-08-29T05:08:30.181Z,1010.6
2016-08-29T05:09:29.036Z,1010.6
2016-08-29T05:10:29.043Z,1010.62
2016-08-29T05:11:29.051Z,1010.69
2016-08-29T05:12:29.112Z,1010.7
2016-08-29T05:13:29.068Z,1010.74
2016-08-29T05:14:29.076Z,1010.73
2016-08-29T05:15:29.085Z,1010.73
2016-08-29T05:16:29.095Z,1010.71
2016-08-29T05:17:29.099Z,1010.73
2016-08-29T05:18:29.106Z,1010.71
2016-08-29T05:19:29.115Z,1010.71
2016-08-29T05:20:29.124Z,1010.73
2016-08-29T05:21:29.130Z,1010.68
2016-08-29T05:22:29.139Z,1010.68
2016-08-29T05:23:30.200Z,1010.71
2016-08-29T05:24:29.155Z,1010.7
2016-08-29T05:25:29.162Z,1010.72
2016-08-29T05:26:29.171Z,1010.73
2016-08-29T05:27:29.179Z,1010.75
2016-08-29T05:28:29.185Z,1010.8
2016-08-29T05:29:29.195Z,1010.8
2016-08-29T05:30:29.203Z,1010.85
2016-08-29T05:31:29.218Z,1010.79
2016-08-29T05:32:29.218Z,1010.8
2016-08-29T05:33:29.233Z,1010.85
2016-08-29T05:34:29.283Z,1010.85
2016-08-29T05:35:29.241Z,1010.9
2016-08-29T05:36:29.251Z,1010.93
2016-08-29T05:37:29.258Z,1010.88
2016-08-29T05:38:29.264Z,1010.89
2016-08-29T05:39:29.275Z,1010.94
2016-08-29T05:40:29.281Z,1010.94
2016-08-29T05:41:29.290Z,1010.94
2016-08-29T05:42:29.298Z,1010.94
2016-08-29T05:43:29.304Z,1010.98
2016-08-29T05:44:29.313Z,1010.97
2016-08-29T05:45:29.871Z,1011.02
2016-08-29T05:46:29.329Z,1010.98
2016-08-29T05:47:29.336Z,1011.03
2016-08-29T05:48:29.345Z,1010.99
2016-08-29T05:49:29.352Z,1011.03
2016-08-29T05:50:29.366Z,1011.01
2016-08-29T05:51:29.367Z,1011
2016-08-29T05:52:29.379Z,1010.97
2016-08-29T05:53:29.383Z,1011
2016-08-29T05:54:29.400Z,1011.03
2016-08-29T05:55:29.404Z,1011.05
2016-08-29T05:56:29.407Z,1011.07
2016-08-29T05:57:29.416Z,1011.04
2016-08-29T05:58:29.424Z,1011.1
2016-08-29T05:59:29.430Z,1011.09
2016-08-29T06:00:29.439Z,1011.11
2016-08-29T06:01:29.446Z,1011.14
2016-08-29T06:02:29.454Z,1011.14
2016-08-29T06:03:29.464Z,1011.14
2016-08-29T06:04:29.471Z,1011.12
2016-08-29T06:05:29.479Z,1011.16
2016-08-29T06:06:29.486Z,1011.17
2016-08-29T06:07:29.894Z,1011.21
2016-08-29T06:08:29.500Z,1011.18
2016-08-29T06:09:29.509Z,1011.17
2016-08-29T06:10:29.523Z,1011.21
2016-08-29T06:11:29.567Z,1011.26
2016-08-29T06:12:29.781Z,1011.26
2016-08-29T06:13:29.540Z,1011.27
2016-08-29T06:14:29.548Z,1011.3
2016-08-29T06:15:29.556Z,1011.31
2016-08-29T06:16:29.562Z,1011.32
2016-08-29T06:17:29.571Z,1011.37
2016-08-29T06:18:29.580Z,1011.33
2016-08-29T06:19:29.586Z,1011.37
2016-08-29T06:20:29.596Z,1011.38
2016-08-29T06:21:29.604Z,1011.37
2016-08-29T06:22:29.612Z,1011.37
2016-08-29T06:23:29.619Z,1011.39
2016-08-29T06:24:29.627Z,1011.39
2016-08-29T06:25:29.634Z,1011.44
2016-08-29T06:26:29.695Z,1011.38
2016-08-29T06:27:29.650Z,1011.42
2016-08-29T06:28:29.658Z,1011.42
2016-08-29T06:29:30.069Z,1011.45
2016-08-29T06:30:29.685Z,1011.45
2016-08-29T06:31:29.681Z,1011.48
2016-08-29T06:32:29.691Z,1011.46
2016-08-29T06:33:29.698Z,1011.5
2016-08-29T06:34:29.706Z,1011.51
2016-08-29T06:35:29.764Z,1011.51
2016-08-29T06:36:29.721Z,1011.52
2016-08-29T06:37:29.731Z,1011.54
2016-08-29T06:38:29.737Z,1011.54
2016-08-29T06:39:29.746Z,1011.54
2016-08-29T06:40:31.253Z,1011.52
2016-08-29T06:41:29.761Z,1011.55
2016-08-29T06:42:29.770Z,1011.56
2016-08-29T06:43:29.777Z,1011.56
2016-08-29T06:44:29.785Z,1011.55
2016-08-29T06:45:29.792Z,1011.59
2016-08-29T06:46:29.801Z,1011.62
2016-08-29T06:47:29.861Z,1011.63
2016-08-29T06:48:29.817Z,1011.7
2016-08-29T06:49:29.825Z,1011.72
2016-08-29T06:50:29.833Z,1011.68
2016-08-29T06:51:29.940Z,1011.64
2016-08-29T06:52:29.846Z,1011.68
2016-08-29T06:53:29.855Z,1011.7
2016-08-29T06:54:29.863Z,1011.73
2016-08-29T06:55:29.871Z,1011.68
2016-08-29T06:56:29.886Z,1011.69
2016-08-29T06:57:29.886Z,1011.71
2016-08-29T06:58:29.896Z,1011.69
2016-08-29T06:59:29.903Z,1011.73
2016-08-29T07:00:29.912Z,1011.74
2016-08-29T07:01:29.918Z,1011.75
2016-08-29T07:02:29.927Z,1011.74
2016-08-29T07:03:29.986Z,1011.79
2016-08-29T07:04:29.942Z,1011.84
2016-08-29T07:05:29.950Z,1011.77
2016-08-29T07:06:30.160Z,1011.78
2016-08-29T07:07:29.967Z,1011.75
2016-08-29T07:08:29.974Z,1011.75
2016-08-29T07:09:29.982Z,1011.77
2016-08-29T07:10:29.995Z,1011.82
2016-08-29T07:11:29.997Z,1011.78
2016-08-29T07:12:30.006Z,1011.8
2016-08-29T07:13:30.015Z,1011.8
2016-08-29T07:14:30.021Z,1011.79
2016-08-29T07:15:30.080Z,1011.83
2016-08-29T07:16:30.037Z,1011.86
2016-08-29T07:17:30.597Z,1011.84
2016-08-29T07:18:30.055Z,1011.86
2016-08-29T07:19:30.063Z,1011.89
2016-08-29T07:20:30.068Z,1011.85
2016-08-29T07:21:30.082Z,1011.87
2016-08-29T07:22:30.088Z,1011.88
2016-08-29T07:23:30.092Z,1011.88
2016-08-29T07:24:30.101Z,1011.9
2016-08-29T07:25:30.107Z,1011.88
2016-08-29T07:26:31.168Z,1011.92
2016-08-29T07:27:30.123Z,1011.92
2016-08-29T07:28:30.133Z,1011.94
2016-08-29T07:29:30.139Z,1011.93
2016-08-29T07:30:30.149Z,1011.96
2016-08-29T07:31:30.212Z,1011.95
2016-08-29T07:32:30.168Z,1011.97
2016-08-29T07:33:30.180Z,1011.97
2016-08-29T07:34:30.181Z,1011.98
2016-08-29T07:35:30.617Z,1011.96
2016-08-29T07:36:30.197Z,1011.97
2016-08-29T07:37:30.205Z,1011.99
2016-08-29T07:38:30.214Z,1011.96
2016-08-29T07:39:30.222Z,1011.97
2016-08-29T07:40:30.230Z,1012.01
2016-08-29T07:41:30.374Z,1012.02
2016-08-29T07:42:30.295Z,1012.01
2016-08-29T07:43:30.252Z,1012.02
2016-08-29T07:44:30.302Z,1012.01
2016-08-29T07:45:30.269Z,1012.04
2016-08-29T07:46:30.276Z,1012.05
2016-08-29T07:47:30.283Z,1011.98
2016-08-29T07:48:30.292Z,1012.01
2016-08-29T07:49:30.364Z,1012
2016-08-29T07:50:30.307Z,1012.02
2016-08-29T07:51:30.364Z,1012.01
2016-08-29T07:52:30.343Z,1012.03
2016-08-29T07:53:30.330Z,1012.02
2016-08-29T07:54:30.349Z,1012.09
2016-08-29T07:55:31.148Z,1012.05
2016-08-29T07:56:30.354Z,1012.08
2016-08-29T07:57:30.363Z,1012.09
2016-08-29T07:58:30.370Z,1012.11
2016-08-29T07:59:30.377Z,1012.13
2016-08-29T08:00:30.386Z,1012.13
2016-08-29T08:01:30.393Z,1012.15
2016-08-29T08:02:30.401Z,1012.18
2016-08-29T08:03:30.410Z,1012.16
2016-08-29T08:04:30.417Z,1012.19
2016-08-29T08:05:30.423Z,1012.22
2016-08-29T08:06:30.433Z,1012.25
2016-08-29T08:07:30.441Z,1012.27
2016-08-29T08:08:30.449Z,1012.3
2016-08-29T08:09:30.455Z,1012.31
2016-08-29T08:10:30.462Z,1012.32
2016-08-29T08:11:30.471Z,1012.35
2016-08-29T08:12:30.480Z,1012.38
2016-08-29T08:13:30.487Z,1012.38
2016-08-29T08:14:31.446Z,1012.36
2016-08-29T08:15:30.503Z,1012.37
2016-08-29T08:16:31.319Z,1012.37
2016-08-29T08:17:30.517Z,1012.37
2016-08-29T08:18:30.527Z,1012.44
2016-08-29T08:19:30.612Z,1012.44
2016-08-29T08:20:30.541Z,1012.47
2016-08-29T08:21:30.647Z,1012.45
2016-08-29T08:22:30.556Z,1012.5
2016-08-29T08:23:30.652Z,1012.49
2016-08-29T08:24:30.574Z,1012.49
2016-08-29T08:25:30.623Z,1012.5
2016-08-29T08:26:30.589Z,1012.49
2016-08-29T08:27:30.596Z,1012.5
2016-08-29T08:28:30.605Z,1012.51
2016-08-29T08:29:30.613Z,1012.52
2016-08-29T08:30:30.637Z,1012.53
2016-08-29T08:31:30.629Z,1012.54
2016-08-29T08:32:30.637Z,1012.54
2016-08-29T08:33:30.657Z,1012.54
2016-08-29T08:34:30.653Z,1012.55
2016-08-29T08:35:30.661Z,1012.59
2016-08-29T08:36:30.753Z,1012.57
2016-08-29T08:37:31.498Z,1012.58
2016-08-29T08:38:30.685Z,1012.59
2016-08-29T08:39:30.787Z,1012.57
2016-08-29T08:40:30.956Z,1012.61
2016-08-29T08:41:30.736Z,1012.59
2016-08-29T08:42:30.765Z,1012.61
2016-08-29T08:43:30.736Z,1012.65
2016-08-29T08:44:31.569Z,1012.66
2016-08-29T08:45:30.741Z,1012.64
2016-08-29T08:46:30.749Z,1012.67
2016-08-29T08:47:30.756Z,1012.66
2016-08-29T08:48:30.763Z,1012.68
2016-08-29T08:49:30.770Z,1012.72
2016-08-29T08:50:30.779Z,1012.72
2016-08-29T08:51:31.037Z,1012.72
2016-08-29T08:52:30.844Z,1012.74
2016-08-29T08:53:30.852Z,1012.73
2016-08-29T08:54:30.838Z,1012.73
2016-08-29T08:55:30.831Z,1012.74
2016-08-29T08:56:30.868Z,1012.77
2016-08-29T08:57:30.885Z,1012.76
2016-08-29T08:58:30.839Z,1012.8
2016-08-29T08:59:30.848Z,1012.8
2016-08-29T09:00:30.930Z,1012.8
2016-08-29T09:01:30.863Z,1012.81
2016-08-29T09:02:30.963Z,1012.84
2016-08-29T09:03:30.882Z,1012.84
2016-08-29T09:04:30.895Z,1012.81
2016-08-29T09:05:30.970Z,1012.83
2016-08-29T09:06:30.978Z,1012.84
2016-08-29T09:07:31.699Z,1012.87
2016-08-29T09:08:30.970Z,1012.88
2016-08-29T09:09:30.925Z,1012.9
2016-08-29T09:10:30.934Z,1012.92
2016-08-29T09:11:30.942Z,1012.94
2016-08-29T09:12:30.950Z,1012.91
2016-08-29T09:13:31.069Z,1012.96
2016-08-29T09:14:30.965Z,1012.95
2016-08-29T09:15:30.996Z,1012.98
2016-08-29T09:16:30.982Z,1012.94
2016-08-29T09:17:31.066Z,1012.98
2016-08-29T09:18:31.062Z,1012.99
2016-08-29T09:19:31.069Z,1012.98
2016-08-29T09:20:31.015Z,1013.01
2016-08-29T09:21:31.048Z,1013
2016-08-29T09:22:31.029Z,1012.98
2016-08-29T09:23:31.077Z,1013
2016-08-29T09:24:31.095Z,1013.04
2016-08-29T09:25:31.054Z,1013.06
2016-08-29T09:26:31.163Z,1013.02
2016-08-29T09:27:31.563Z,1013.06
2016-08-29T09:28:31.102Z,1013.07
2016-08-29T09:29:31.114Z,1013.05
2016-08-29T09:30:31.117Z,1013.08
2016-08-29T09:31:31.100Z,1013.07
2016-08-29T09:32:31.139Z,1013.1
2016-08-29T09:33:31.117Z,1013.11
2016-08-29T09:34:31.180Z,1013.12
2016-08-29T09:35:31.138Z,1013.18
2016-08-29T09:36:31.236Z,1013.12
2016-08-29T09:37:31.238Z,1013.12
2016-08-29T09:38:31.161Z,1013.1
2016-08-29T09:39:31.222Z,1013.12
2016-08-29T09:40:31.292Z,1013.14
2016-08-29T09:41:31.182Z,1013.13
2016-08-29T09:42:31.208Z,1013.15
2016-08-29T09:43:31.225Z,1013.15
2016-08-29T09:44:31.236Z,1013.2
2016-08-29T09:45:32.169Z,1013.16
2016-08-29T09:46:31.269Z,1013.19
2016-08-29T09:47:31.232Z,1013.21
2016-08-29T09:48:31.238Z,1013.18
2016-08-29T09:49:31.246Z,1013.17
2016-08-29T09:50:31.256Z,1013.16
2016-08-29T09:51:31.259Z,1013.17
2016-08-29T09:52:31.290Z,1013.21
2016-08-29T09:53:31.278Z,1013.18
2016-08-29T09:54:31.341Z,1013.2
2016-08-29T09:55:31.644Z,1013.17
2016-08-29T09:56:31.352Z,1013.16
2016-08-29T09:57:31.402Z,1013.17
2016-08-29T09:58:31.386Z,1013.2
2016-08-29T09:59:31.325Z,1013.22
2016-08-29T10:00:31.393Z,1013.24
2016-08-29T10:01:31.340Z,1013.26
2016-08-29T10:02:31.381Z,1013.25
2016-08-29T10:03:31.405Z,1013.23
2016-08-29T10:04:31.448Z,1013.25
2016-08-29T10:05:31.389Z,1013.24
2016-08-29T10:06:31.431Z,1013.22
2016-08-29T10:07:31.425Z,1013.29
2016-08-29T10:08:31.397Z,1013.26
2016-08-29T10:09:31.482Z,1013.25
2016-08-29T10:10:31.412Z,1013.3
2016-08-29T10:11:31.446Z,1013.26
2016-08-29T10:12:31.460Z,1013.26
2016-08-29T10:13:31.436Z,1013.28
2016-08-29T10:14:31.878Z,1013.28
2016-08-29T10:15:31.471Z,1013.29
2016-08-29T10:16:31.490Z,1013.3
2016-08-29T10:17:31.471Z,1013.3
2016-08-29T10:18:31.479Z,1013.31
2016-08-29T10:19:31.576Z,1013.33
2016-08-29T10:20:31.522Z,1013.31
2016-08-29T10:21:31.961Z,1013.34
2016-08-29T10:22:31.606Z,1013.35
2016-08-29T10:23:31.516Z,1013.31
2016-08-29T10:24:31.573Z,1013.36
2016-08-29T10:25:31.585Z,1013.35
2016-08-29T10:26:31.639Z,1013.36
2016-08-29T10:27:31.547Z,1013.33
2016-08-29T10:28:31.554Z,1013.31
2016-08-29T10:29:31.600Z,1013.36
2016-08-29T10:30:31.623Z,1013.33
2016-08-29T10:31:31.601Z,1013.36
2016-08-29T10:32:31.586Z,1013.35
2016-08-29T10:33:31.645Z,1013.35
2016-08-29T10:34:31.632Z,1013.36
2016-08-29T10:35:31.618Z,1013.31
2016-08-29T10:36:31.618Z,1013.35
2016-08-29T10:37:31.626Z,1013.34
2016-08-29T10:38:32.511Z,1013.36
2016-08-29T10:39:31.744Z,1013.33
2016-08-29T10:40:31.701Z,1013.35
2016-08-29T10:41:31.659Z,1013.34
2016-08-29T10:42:31.669Z,1013.37
2016-08-29T10:43:31.729Z,1013.36
2016-08-29T10:44:31.684Z,1013.4
2016-08-29T10:45:31.716Z,1013.38
2016-08-29T10:46:31.793Z,1013.39
2016-08-29T10:47:31.796Z,1013.39
2016-08-29T10:48:32.274Z,1013.43
2016-08-29T10:49:31.803Z,1013.43
2016-08-29T10:50:31.755Z,1013.43
2016-08-29T10:51:31.780Z,1013.45
2016-08-29T10:52:31.850Z,1013.42
2016-08-29T10:53:31.757Z,1013.46
2016-08-29T10:54:31.765Z,1013.43
2016-08-29T10:55:31.816Z,1013.43
2016-08-29T10:56:31.831Z,1013.42
2016-08-29T10:57:31.790Z,1013.46
2016-08-29T10:58:31.797Z,1013.49
2016-08-29T10:59:31.898Z,1013.46
2016-08-29T11:00:31.894Z,1013.46
2016-08-29T11:01:31.823Z,1013.47
2016-08-29T11:02:31.921Z,1013.5
2016-08-29T11:03:31.860Z,1013.5
2016-08-29T11:04:31.944Z,1013.49
2016-08-29T11:05:31.855Z,1013.54
2016-08-29T11:06:31.947Z,1013.57
2016-08-29T11:07:31.872Z,1013.55
2016-08-29T11:08:31.884Z,1013.63
2016-08-29T11:09:31.926Z,1013.62
2016-08-29T11:10:31.896Z,1013.62
2016-08-29T11:11:31.943Z,1013.6
2016-08-29T11:12:31.933Z,1013.58
2016-08-29T11:13:32.008Z,1013.58
2016-08-29T11:14:31.965Z,1013.59
2016-08-29T11:15:31.936Z,1013.59
2016-08-29T11:16:31.995Z,1013.66
2016-08-29T11:17:32.039Z,1013.67
2016-08-29T11:18:32.002Z,1013.65
2016-08-29T11:19:32.035Z,1013.64
2016-08-29T11:20:33.086Z,1013.66
2016-08-29T11:21:32.063Z,1013.68
2016-08-29T11:22:31.995Z,1013.65
2016-08-29T11:23:32.002Z,1013.65
2016-08-29T11:24:32.092Z,1013.6
2016-08-29T11:25:32.125Z,1013.68
2016-08-29T11:26:32.026Z,1013.65
2016-08-29T11:27:32.097Z,1013.61
2016-08-29T11:28:32.094Z,1013.59
2016-08-29T11:29:32.134Z,1013.6
2016-08-29T11:30:32.083Z,1013.6
2016-08-29T11:31:32.163Z,1013.57
2016-08-29T11:32:32.097Z,1013.62
2016-08-29T11:33:32.092Z,1013.58
2016-08-29T11:34:32.097Z,1013.58
2016-08-29T11:35:32.120Z,1013.56
2016-08-29T11:36:32.121Z,1013.54
2016-08-29T11:37:32.214Z,1013.54
2016-08-29T11:38:32.125Z,1013.53
2016-08-29T11:39:32.215Z,1013.53
2016-08-29T11:40:32.230Z,1013.52
2016-08-29T11:41:32.149Z,1013.53
2016-08-29T11:42:32.194Z,1013.55
2016-08-29T11:43:32.207Z,1013.51
2016-08-29T11:44:32.177Z,1013.56
2016-08-29T11:45:32.245Z,1013.49
2016-08-29T11:46:32.228Z,1013.52
2016-08-29T11:47:32.199Z,1013.53
2016-08-29T11:48:32.242Z,1013.58
2016-08-29T11:49:32.231Z,1013.61
2016-08-29T11:50:32.265Z,1013.56
2016-08-29T11:51:32.231Z,1013.57
2016-08-29T11:52:32.239Z,1013.61
2016-08-29T11:53:32.298Z,1013.58
2016-08-29T11:54:32.348Z,1013.62
2016-08-29T11:55:32.263Z,1013.62
2016-08-29T11:56:32.333Z,1013.67
2016-08-29T11:57:32.279Z,1013.65
2016-08-29T11:58:32.287Z,1013.61
2016-08-29T11:59:32.295Z,1013.73
2016-08-29T12:00:32.311Z,1013.69
2016-08-29T12:01:32.361Z,1013.73
2016-08-29T12:02:32.403Z,1013.76
2016-08-29T12:03:32.403Z,1013.77
2016-08-29T12:04:32.334Z,1013.76
2016-08-29T12:05:32.342Z,1013.73
2016-08-29T12:06:32.398Z,1013.76
2016-08-29T12:07:32.440Z,1013.77
2016-08-29T12:08:32.388Z,1013.77